createdAt,value
2023-03-22T00:02:26.178Z,2.77
2023-03-22T00:04:54.790Z,2.83
2023-03-22T00:07:23.099Z,2.73
2023-03-22T00:09:51.389Z,2.97
2023-03-22T00:12:19.851Z,3.57
2023-03-22T00:14:49.885Z,3.47
2023-03-22T00:17:18.440Z,3.67
2023-03-22T00:19:47.445Z,3.80
2023-03-22T00:22:16.246Z,4.50
2023-03-22T00:24:44.631Z,4.50
2023-03-22T00:27:12.872Z,4.40
2023-03-22T00:29:43.171Z,4.77
2023-03-22T00:32:12.820Z,5.40
2023-03-22T00:34:41.052Z,5.80
2023-03-22T00:37:10.448Z,5.23
2023-03-22T00:39:38.880Z,5.97
2023-03-22T00:42:07.964Z,6.20
2023-03-22T00:44:36.226Z,7.07
2023-03-22T00:47:04.534Z,8.10
2023-03-22T00:49:35.195Z,7.93
2023-03-22T00:52:03.485Z,8.47
2023-03-22T00:54:31.786Z,8.20
2023-03-22T00:57:00.075Z,8.93
2023-03-22T00:59:28.911Z,8.87
2023-03-22T01:01:59.030Z,9.23
2023-03-22T01:04:28.940Z,9.63
2023-03-22T01:07:02.137Z,9.67
2023-03-22T01:09:33.791Z,9.07
2023-03-22T01:12:03.249Z,9.50
2023-03-22T01:14:31.895Z,9.83
2023-03-22T01:17:00.279Z,8.93
2023-03-22T01:19:28.764Z,9.30
2023-03-22T01:21:57.783Z,9.73
2023-03-22T01:24:28.341Z,10.60
2023-03-22T01:26:57.098Z,9.60
2023-03-22T01:29:25.688Z,9.03
2023-03-22T01:31:54.184Z,9.83
2023-03-22T01:34:22.958Z,9.73
2023-03-22T01:36:51.798Z,9.53
2023-03-22T01:39:20.715Z,9.43
2023-03-22T01:41:54.282Z,8.63
2023-03-22T01:44:24.507Z,8.90
2023-03-22T01:46:55.785Z,7.97
2023-03-22T01:49:27.766Z,8.97
2023-03-22T01:51:59.470Z,7.83
2023-03-22T01:54:42.903Z,8.10
2023-03-22T01:57:33.435Z,8.37
2023-03-22T02:00:08.789Z,8.20
2023-03-22T02:03:16.543Z,8.17
2023-03-22T02:05:48.971Z,8.27
2023-03-22T02:08:19.343Z,8.00
2023-03-22T02:10:59.041Z,7.87
2023-03-22T02:13:48.104Z,7.50
2023-03-22T02:17:00.063Z,7.40
2023-03-22T02:19:56.703Z,7.63
2023-03-22T02:22:53.073Z,7.20
2023-03-22T02:25:54.023Z,7.57
2023-03-22T02:28:34.328Z,6.90
2023-03-22T02:31:36.026Z,6.97
2023-03-22T02:34:37.400Z,6.97
2023-03-22T02:37:59.574Z,7.30
2023-03-22T02:40:34.659Z,6.40
2023-03-22T02:43:13.931Z,6.73
2023-03-22T02:45:47.864Z,6.67
2023-03-22T02:48:22.776Z,6.87
2023-03-22T02:50:55.048Z,6.97
2023-03-22T02:53:29.175Z,5.80
2023-03-22T02:56:03.783Z,6.10
2023-03-22T02:58:37.093Z,5.80
2023-03-22T03:01:09.229Z,5.57
2023-03-22T03:03:39.671Z,5.43
2023-03-22T03:06:12.506Z,5.83
2023-03-22T03:08:41.429Z,5.50
2023-03-22T03:11:11.832Z,5.60
2023-03-22T03:13:40.209Z,6.00
2023-03-22T03:16:17.509Z,5.87
2023-03-22T03:18:52.121Z,5.50
2023-03-22T03:21:32.608Z,5.33
2023-03-22T03:24:18.659Z,4.90
2023-03-22T03:26:57.650Z,5.50
2023-03-22T03:29:34.470Z,4.93
2023-03-22T03:32:08.225Z,5.03
2023-03-22T03:34:45.555Z,4.77
2023-03-22T03:37:18.574Z,4.63
2023-03-22T03:39:54.045Z,4.43
2023-03-22T03:42:27.200Z,5.13
2023-03-22T03:44:57.397Z,4.23
2023-03-22T03:47:27.076Z,4.37
2023-03-22T03:49:55.477Z,4.00
2023-03-22T03:52:24.639Z,3.63
2023-03-22T03:54:53.589Z,3.80
2023-03-22T03:57:29.456Z,3.03
2023-03-22T03:59:57.919Z,3.63
2023-03-22T04:02:45.322Z,3.50
2023-03-22T04:05:29.773Z,3.13
2023-03-22T04:07:58.087Z,2.97
2023-03-22T04:10:26.466Z,3.73
2023-03-22T04:12:56.070Z,2.87
2023-03-22T04:15:24.370Z,3.03
2023-03-22T04:17:57.260Z,2.77
2023-03-22T04:20:29.910Z,3.00
2023-03-22T04:22:59.086Z,2.77
2023-03-22T04:25:29.917Z,2.53
2023-03-22T04:28:06.058Z,2.30
2023-03-22T04:30:36.750Z,3.00
2023-03-22T04:33:39.360Z,2.43
2023-03-22T04:36:19.751Z,2.20
2023-03-22T04:39:10.513Z,2.37
2023-03-22T04:41:39.986Z,2.80
2023-03-22T04:44:09.813Z,2.10
2023-03-22T04:46:44.006Z,1.90
2023-03-22T04:49:12.547Z,2.17
2023-03-22T04:51:42.872Z,2.20
2023-03-22T04:54:19.890Z,2.27
2023-03-22T04:56:48.309Z,1.80
2023-03-22T04:59:20.579Z,2.00
2023-03-22T05:01:51.654Z,1.77
2023-03-22T05:04:24.170Z,2.30
2023-03-22T05:06:59.405Z,1.80
2023-03-22T05:09:38.089Z,2.30
2023-03-22T05:12:06.852Z,2.37
2023-03-22T05:14:49.743Z,1.93
2023-03-22T05:17:23.303Z,1.80
2023-03-22T05:19:54.966Z,1.97
2023-03-22T05:22:23.496Z,1.80
2023-03-22T05:24:53.398Z,1.97
2023-03-22T05:27:31.514Z,1.87
2023-03-22T05:30:15.599Z,1.90
2023-03-22T05:33:03.291Z,1.90
2023-03-22T05:35:36.524Z,2.13
2023-03-22T05:38:05.728Z,2.77
2023-03-22T05:40:37.462Z,1.90
2023-03-22T05:43:06.395Z,1.80
2023-03-22T05:45:37.821Z,2.27
2023-03-22T05:48:21.412Z,2.10
2023-03-22T05:50:49.840Z,2.50
2023-03-22T05:53:18.721Z,2.13
2023-03-22T05:55:57.700Z,2.20
2023-03-22T05:58:28.993Z,1.60
2023-03-22T06:01:01.174Z,2.10
2023-03-22T06:03:52.707Z,2.33
2023-03-22T06:06:36.840Z,1.87
2023-03-22T06:09:17.708Z,1.80
2023-03-22T06:11:50.538Z,1.73
2023-03-22T06:14:19.186Z,2.57
2023-03-22T06:17:04.876Z,2.23
2023-03-22T06:19:33.357Z,2.53
2023-03-22T06:22:04.899Z,2.37
2023-03-22T06:24:35.726Z,2.20
2023-03-22T06:27:05.669Z,2.47
2023-03-22T06:29:34.412Z,2.40
2023-03-22T06:32:07.373Z,2.20
2023-03-22T06:34:35.838Z,2.10
2023-03-22T06:37:04.684Z,2.43
2023-03-22T06:39:36.129Z,2.10
2023-03-22T06:42:04.843Z,2.00
2023-03-22T06:44:33.250Z,2.57
2023-03-22T06:47:16.969Z,2.10
2023-03-22T06:49:45.225Z,1.87
2023-03-22T06:52:20.449Z,1.60
2023-03-22T06:54:48.946Z,1.83
2023-03-22T06:57:17.188Z,2.03
2023-03-22T06:59:45.414Z,1.80
2023-03-22T07:02:13.924Z,1.90
2023-03-22T07:04:49.086Z,2.20
2023-03-22T07:07:17.345Z,2.07
2023-03-22T07:09:46.317Z,2.10
2023-03-22T07:12:14.881Z,1.93
2023-03-22T07:14:43.543Z,1.80
2023-03-22T07:17:24.753Z,1.93
2023-03-22T07:19:54.581Z,2.93
2023-03-22T07:22:25.928Z,2.07
2023-03-22T07:24:59.363Z,2.37
2023-03-22T07:27:30.866Z,1.83
2023-03-22T07:30:00.023Z,1.93
2023-03-22T07:32:29.630Z,2.30
2023-03-22T07:35:12.107Z,2.63
2023-03-22T07:37:42.064Z,1.93
2023-03-22T07:40:20.034Z,2.20
2023-03-22T07:42:49.682Z,2.23
2023-03-22T07:45:25.356Z,2.53
2023-03-22T07:48:23.298Z,2.33
2023-03-22T07:51:19.291Z,2.90
2023-03-22T07:53:48.519Z,1.83
2023-03-22T07:56:16.982Z,1.93
2023-03-22T07:58:45.386Z,2.30
2023-03-22T08:01:14.350Z,2.50
2023-03-22T08:04:06.304Z,1.70
2023-03-22T08:06:58.649Z,2.20
2023-03-22T08:09:27.447Z,2.07
2023-03-22T08:11:56.938Z,2.07
2023-03-22T08:14:35.892Z,2.07
2023-03-22T08:17:07.337Z,2.10
2023-03-22T08:19:36.627Z,1.90
2023-03-22T08:22:08.641Z,2.47
2023-03-22T08:24:57.499Z,2.07
2023-03-22T08:27:32.642Z,2.00
2023-03-22T08:30:02.461Z,2.40
2023-03-22T08:32:34.967Z,2.00
2023-03-22T08:35:06.396Z,2.50
2023-03-22T08:37:36.270Z,2.77
2023-03-22T08:40:09.555Z,1.87
2023-03-22T08:42:42.387Z,2.33
2023-03-22T08:45:11.418Z,2.50
2023-03-22T08:47:49.798Z,1.93
2023-03-22T08:50:21.555Z,2.40
2023-03-22T08:53:02.733Z,2.00
2023-03-22T08:55:35.419Z,1.70
2023-03-22T08:58:24.195Z,2.17
2023-03-22T09:01:12.731Z,3.00
2023-03-22T09:03:49.359Z,1.93
2023-03-22T09:06:17.719Z,1.87
2023-03-22T09:08:52.099Z,2.60
2023-03-22T09:11:22.993Z,2.03
2023-03-22T09:13:52.888Z,2.33
2023-03-22T09:16:22.097Z,2.00
2023-03-22T09:18:51.336Z,2.20
2023-03-22T09:21:22.832Z,3.07
2023-03-22T09:23:56.103Z,2.40
2023-03-22T09:26:31.957Z,2.07
2023-03-22T09:29:01.250Z,2.10
2023-03-22T09:31:30.184Z,2.07
2023-03-22T09:34:17.899Z,2.20
2023-03-22T09:36:47.508Z,2.03
2023-03-22T09:39:20.068Z,1.87
2023-03-22T09:41:56.093Z,1.97
2023-03-22T09:44:31.405Z,1.90
2023-03-22T09:47:04.060Z,2.27
2023-03-22T09:49:52.293Z,1.90
2023-03-22T09:52:21.842Z,2.10
2023-03-22T09:54:53.045Z,2.10
2023-03-22T09:57:29.138Z,2.03
2023-03-22T10:00:02.217Z,1.60
2023-03-22T10:02:50.404Z,2.60
2023-03-22T10:05:26.325Z,2.10
2023-03-22T10:08:20.407Z,2.27
2023-03-22T10:10:52.544Z,1.97
2023-03-22T10:13:27.987Z,1.93
2023-03-22T10:15:59.638Z,1.70
2023-03-22T10:18:34.304Z,2.10
2023-03-22T10:21:04.714Z,2.03
2023-03-22T10:23:39.012Z,2.07
2023-03-22T10:26:15.154Z,1.93
2023-03-22T10:28:46.131Z,2.70
2023-03-22T10:31:17.636Z,1.97
2023-03-22T10:33:53.158Z,1.80
2023-03-22T10:36:24.141Z,1.70
2023-03-22T10:38:55.749Z,2.50
2023-03-22T10:41:26.973Z,2.00
2023-03-22T10:43:59.584Z,2.20
2023-03-22T10:46:30.390Z,2.60
2023-03-22T10:49:01.975Z,2.10
2023-03-22T10:51:35.922Z,2.13
2023-03-22T10:54:05.733Z,2.30
2023-03-22T10:56:35.404Z,1.67
2023-03-22T10:59:03.664Z,2.20
2023-03-22T11:01:34.460Z,2.07
2023-03-22T11:04:09.728Z,2.03
2023-03-22T11:06:41.046Z,2.00
2023-03-22T11:09:15.502Z,2.20
2023-03-22T11:11:53.220Z,2.20
2023-03-22T11:14:27.803Z,2.07
2023-03-22T11:16:57.888Z,2.00
2023-03-22T11:19:28.436Z,1.70
2023-03-22T11:21:57.404Z,1.97
2023-03-22T11:24:27.008Z,2.50
2023-03-22T11:27:08.629Z,1.67
2023-03-22T11:29:43.656Z,1.60
2023-03-22T11:32:23.046Z,1.90
2023-03-22T11:35:01.552Z,2.40
2023-03-22T11:37:30.571Z,1.93
2023-03-22T11:40:05.095Z,1.93
2023-03-22T11:42:36.981Z,2.10
2023-03-22T11:45:05.926Z,2.00
2023-03-22T11:47:39.173Z,2.10
2023-03-22T11:50:10.694Z,2.50
2023-03-22T11:52:40.094Z,1.97
2023-03-22T11:55:08.978Z,2.23
2023-03-22T11:57:39.015Z,1.90
2023-03-22T12:00:15.137Z,2.27
2023-03-22T12:02:49.678Z,2.10
2023-03-22T12:05:22.692Z,2.27
2023-03-22T12:07:58.893Z,2.60
2023-03-22T12:10:31.030Z,2.43
2023-03-22T12:13:03.620Z,2.30
2023-03-22T12:15:35.811Z,2.50
2023-03-22T12:18:09.220Z,2.63
2023-03-22T12:20:43.280Z,2.40
2023-03-22T12:23:16.654Z,2.37
2023-03-22T12:25:50.624Z,1.90
2023-03-22T12:28:23.962Z,2.17
2023-03-22T12:30:56.202Z,2.30
2023-03-22T12:33:27.443Z,1.67
2023-03-22T12:35:58.838Z,1.83
2023-03-22T12:38:33.996Z,2.00
2023-03-22T12:41:06.034Z,2.37
2023-03-22T12:43:48.119Z,1.97
2023-03-22T12:46:21.505Z,2.10
2023-03-22T12:48:52.720Z,2.17
2023-03-22T12:51:21.037Z,2.20
2023-03-22T12:53:53.144Z,1.90
2023-03-22T12:56:24.688Z,2.27
2023-03-22T12:58:59.309Z,2.10
2023-03-22T13:01:34.671Z,2.10
2023-03-22T13:04:31.740Z,2.10
2023-03-22T13:07:11.211Z,2.40
2023-03-22T13:09:43.435Z,1.90
2023-03-22T13:12:31.854Z,2.60
2023-03-22T13:15:04.606Z,2.10
2023-03-22T13:17:45.251Z,2.30
2023-03-22T13:20:28.792Z,2.30
2023-03-22T13:23:03.472Z,2.30
2023-03-22T13:25:36.522Z,2.40
2023-03-22T13:28:21.261Z,2.60
2023-03-22T13:30:53.569Z,3.13
2023-03-22T13:33:26.826Z,2.70
2023-03-22T13:35:57.446Z,2.43
2023-03-22T13:38:28.236Z,2.73
2023-03-22T13:41:03.760Z,3.20
2023-03-22T13:43:37.611Z,2.97
2023-03-22T13:46:28.076Z,3.03
2023-03-22T13:49:18.042Z,3.40
2023-03-22T13:51:46.414Z,3.03
2023-03-22T13:54:23.970Z,2.90
2023-03-22T13:56:56.994Z,3.07
2023-03-22T13:59:31.029Z,3.20
2023-03-22T14:02:05.705Z,3.00
2023-03-22T14:04:40.776Z,3.03
2023-03-22T14:07:16.758Z,3.00
2023-03-22T14:09:50.453Z,3.60
2023-03-22T14:12:22.419Z,3.40
2023-03-22T14:14:56.275Z,2.87
2023-03-22T14:17:35.453Z,3.20
2023-03-22T14:20:10.508Z,3.17
